Time;durP1;ratioP1;P1;durP2;ratioP2;P2;SDS_P1;SDS_P2;PMS_P1;PMS_P2;Temp;Humidity;BMP_temperature;BMP_pressure;BME280_temperature;BME280_humidity;BME280_pressure;Samples;Min_cycle;Max_cycle;Signal;HPM_P1;HPM_P2
2022/12/21 00:00:10;;;;;;;;;;;22.10;31.00;;;;;;500362;237;1917;-44
2022/12/21 00:02:11;;;;;;;;;;;22.00;31.00;;;;;;500410;237;2851;-42
2022/12/21 00:04:13;;;;;;;;;;;22.00;31.10;;;;;;500344;237;2144;-44
2022/12/21 00:06:14;;;;;;;;;;;22.00;31.10;;;;;;500464;237;3034;-43
2022/12/21 00:08:16;;;;;;;;;;;21.90;31.10;;;;;;500545;237;1663;-44
2022/12/21 00:10:18;;;;;;;;;;;21.90;31.10;;;;;;500514;237;2329;-44
2022/12/21 00:12:20;;;;;;;;;;;21.90;31.20;;;;;;500491;237;2145;-43
2022/12/21 00:14:21;;;;;;;;;;;21.90;31.10;;;;;;500470;237;1784;-43
2022/12/21 00:16:23;;;;;;;;;;;21.80;31.10;;;;;;500519;237;1563;-42
2022/12/21 00:18:24;;;;;;;;;;;21.90;31.20;;;;;;500509;237;2399;-44
2022/12/21 00:20:25;;;;;;;;;;;21.90;31.10;;;;;;500697;237;2496;-41
2022/12/21 00:22:27;;;;;;;;;;;21.80;31.20;;;;;;500418;237;2145;-43
2022/12/21 00:24:28;;;;;;;;;;;21.80;31.20;;;;;;500487;237;1894;-43
2022/12/21 00:26:30;;;;;;;;;;;21.80;31.20;;;;;;500431;237;1864;-43
2022/12/21 00:28:31;;;;;;;;;;;21.80;31.20;;;;;;500432;237;2971;-44
2022/12/21 00:30:33;;;;;;;;;;;21.80;31.20;;;;;;500726;237;1979;-41
2022/12/21 00:32:35;;;;;;;;;;;21.80;31.30;;;;;;500445;237;2188;-44
2022/12/21 00:34:37;;;;;;;;;;;21.80;31.30;;;;;;500589;237;1765;-43
2022/12/21 00:36:38;;;;;;;;;;;21.80;31.30;;;;;;500461;237;1664;-42
2022/12/21 00:38:40;;;;;;;;;;;21.70;31.30;;;;;;500552;237;1700;-44
2022/12/21 00:40:41;;;;;;;;;;;21.70;31.40;;;;;;500414;237;1817;-44
2022/12/21 00:42:42;;;;;;;;;;;21.70;31.40;;;;;;500451;237;2069;-44
2022/12/21 00:44:44;;;;;;;;;;;21.70;31.40;;;;;;500433;237;2436;-41
2022/12/21 00:46:47;;;;;;;;;;;21.60;31.40;;;;;;500633;237;2106;-44
2022/12/21 00:48:47;;;;;;;;;;;21.70;31.50;;;;;;500316;237;3390;-43
2022/12/21 00:50:48;;;;;;;;;;;21.60;31.40;;;;;;500415;237;1909;-43
2022/12/21 00:52:50;;;;;;;;;;;21.70;31.40;;;;;;500376;237;2180;-44
2022/12/21 00:54:51;;;;;;;;;;;21.70;31.40;;;;;;500348;237;1955;-41
2022/12/21 00:56:53;;;;;;;;;;;21.60;31.40;;;;;;500343;237;1882;-44
2022/12/21 00:58:54;;;;;;;;;;;21.60;31.40;;;;;;500498;237;1774;-44
2022/12/21 01:00:56;;;;;;;;;;;21.60;31.40;;;;;;500570;237;1707;-43
2022/12/21 01:02:57;;;;;;;;;;;21.70;31.50;;;;;;500573;237;1314;-44
2022/12/21 01:05:00;;;;;;;;;;;21.70;31.40;;;;;;500582;237;1774;-42
2022/12/21 01:07:00;;;;;;;;;;;21.60;31.40;;;;;;500370;237;2257;-44
2022/12/21 01:09:02;;;;;;;;;;;21.60;31.50;;;;;;500531;237;1601;-44
2022/12/21 01:11:03;;;;;;;;;;;21.60;31.50;;;;;;500478;238;1794;-44
2022/12/21 01:13:04;;;;;;;;;;;21.60;31.50;;;;;;500578;237;2133;-43
2022/12/21 01:15:06;;;;;;;;;;;21.60;31.50;;;;;;500731;237;2004;-44
2022/12/21 01:17:08;;;;;;;;;;;21.60;31.50;;;;;;500446;237;1861;-43
2022/12/21 01:19:09;;;;;;;;;;;21.60;31.50;;;;;;500505;237;1777;-44
2022/12/21 01:21:11;;;;;;;;;;;21.60;31.50;;;;;;500442;237;2402;-44
2022/12/21 01:23:12;;;;;;;;;;;21.60;31.50;;;;;;500538;237;1886;-44
2022/12/21 01:25:14;;;;;;;;;;;21.60;31.50;;;;;;500849;237;1293;-43
2022/12/21 01:27:15;;;;;;;;;;;21.60;31.50;;;;;;500660;237;2467;-44
2022/12/21 01:29:16;;;;;;;;;;;21.60;31.50;;;;;;500537;237;1673;-44
2022/12/21 01:31:18;;;;;;;;;;;21.60;31.50;;;;;;500644;237;2362;-41
2022/12/21 01:33:20;;;;;;;;;;;21.50;31.50;;;;;;500459;238;2073;-44
2022/12/21 01:35:21;;;;;;;;;;;21.50;31.50;;;;;;500582;237;1686;-44
2022/12/21 01:37:23;;;;;;;;;;;21.50;31.50;;;;;;500499;237;1397;-44
2022/12/21 01:39:24;;;;;;;;;;;21.50;31.50;;;;;;500656;237;2052;-43
2022/12/21 01:41:25;;;;;;;;;;;21.50;31.60;;;;;;500205;237;2741;-43
2022/12/21 01:43:28;;;;;;;;;;;21.50;31.60;;;;;;500467;237;3068;-43
2022/12/21 01:45:29;;;;;;;;;;;21.50;31.60;;;;;;500370;237;1977;-43
2022/12/21 01:47:30;;;;;;;;;;;21.50;31.50;;;;;;500239;237;3185;-40
2022/12/21 01:49:32;;;;;;;;;;;21.50;31.50;;;;;;500342;237;1614;-44
2022/12/21 01:51:33;;;;;;;;;;;21.50;31.60;;;;;;500176;237;2259;-44
2022/12/21 01:53:36;;;;;;;;;;;21.50;31.50;;;;;;500618;237;1985;-44
2022/12/21 01:55:37;;;;;;;;;;;21.50;31.50;;;;;;500394;237;1941;-44
2022/12/21 01:57:38;;;;;;;;;;;21.50;31.60;;;;;;500331;237;1955;-44
2022/12/21 01:59:40;;;;;;;;;;;21.50;31.60;;;;;;500481;237;1982;-44
2022/12/21 02:01:41;;;;;;;;;;;21.50;31.60;;;;;;500502;237;1559;-44
2022/12/21 02:03:43;;;;;;;;;;;21.50;31.60;;;;;;500460;237;1982;-42
2022/12/21 02:05:45;;;;;;;;;;;21.50;31.60;;;;;;500441;237;1698;-43
2022/12/21 02:07:46;;;;;;;;;;;21.60;31.50;;;;;;500408;237;1730;-43
2022/12/21 02:09:47;;;;;;;;;;;21.60;31.50;;;;;;500444;237;2144;-44
2022/12/21 02:11:49;;;;;;;;;;;21.60;31.40;;;;;;500415;237;2283;-44
2022/12/21 02:13:50;;;;;;;;;;;21.60;31.40;;;;;;500392;237;1643;-44
2022/12/21 02:15:51;;;;;;;;;;;21.60;31.50;;;;;;500328;237;1879;-43
2022/12/21 02:17:53;;;;;;;;;;;21.60;31.40;;;;;;500361;237;1845;-43
2022/12/21 02:19:54;;;;;;;;;;;21.70;31.40;;;;;;500363;237;1861;-44
2022/12/21 02:21:56;;;;;;;;;;;21.60;31.30;;;;;;500425;237;1778;-44
2022/12/21 02:23:58;;;;;;;;;;;21.70;31.40;;;;;;500458;237;2151;-44
2022/12/21 02:25:59;;;;;;;;;;;21.60;31.40;;;;;;500486;237;1968;-44
2022/12/21 02:28:00;;;;;;;;;;;21.60;31.40;;;;;;500672;237;1600;-43
2022/12/21 02:30:02;;;;;;;;;;;21.70;31.30;;;;;;500798;237;1680;-44
2022/12/21 02:32:03;;;;;;;;;;;21.70;31.30;;;;;;500621;237;2176;-44
2022/12/21 02:34:05;;;;;;;;;;;21.70;31.40;;;;;;500978;237;2034;-44
2022/12/21 02:36:07;;;;;;;;;;;21.70;31.30;;;;;;500613;237;1697;-44
2022/12/21 02:38:08;;;;;;;;;;;21.70;31.30;;;;;;500477;237;1561;-43
2022/12/21 02:40:09;;;;;;;;;;;21.70;31.20;;;;;;500697;238;2019;-44
2022/12/21 02:44:12;;;;;;;;;;;21.80;31.20;;;;;;500528;237;1412;-44
2022/12/21 02:44:16;;;;;;;;;;;21.80;31.20;;;;;;498716;238;2244;-44
2022/12/21 02:46:17;;;;;;;;;;;21.70;31.20;;;;;;500513;237;1786;-44
2022/12/21 02:48:19;;;;;;;;;;;21.70;31.20;;;;;;500493;237;1699;-44
2022/12/21 02:50:21;;;;;;;;;;;21.70;31.30;;;;;;500530;237;1676;-43
2022/12/21 02:52:26;;;;;;;;;;;21.70;31.20;;;;;;500355;237;2248;-44
2022/12/21 02:54:27;;;;;;;;;;;21.80;31.20;;;;;;500379;237;2140;-44
2022/12/21 02:56:29;;;;;;;;;;;21.80;31.10;;;;;;500469;237;1912;-43
2022/12/21 02:58:31;;;;;;;;;;;21.80;31.20;;;;;;500447;237;1691;-43
2022/12/21 03:00:32;;;;;;;;;;;21.80;31.20;;;;;;500251;238;2080;-41
2022/12/21 03:02:34;;;;;;;;;;;21.80;31.20;;;;;;500342;237;1985;-44
2022/12/21 03:04:36;;;;;;;;;;;21.80;31.20;;;;;;500314;237;1756;-44
2022/12/21 03:06:38;;;;;;;;;;;21.80;31.20;;;;;;500317;237;1851;-44
2022/12/21 03:08:39;;;;;;;;;;;21.70;31.20;;;;;;500345;237;1812;-44
2022/12/21 03:10:41;;;;;;;;;;;21.80;31.20;;;;;;499902;238;3404;-44
2022/12/21 03:12:43;;;;;;;;;;;21.80;31.20;;;;;;500350;237;2152;-42
2022/12/21 03:14:44;;;;;;;;;;;21.80;31.20;;;;;;500357;237;1797;-43
2022/12/21 03:16:46;;;;;;;;;;;21.80;31.20;;;;;;500322;237;1712;-43
2022/12/21 03:18:47;;;;;;;;;;;21.80;31.20;;;;;;500162;237;1879;-44
2022/12/21 03:20:49;;;;;;;;;;;21.80;31.20;;;;;;500167;237;2008;-43
2022/12/21 03:22:50;;;;;;;;;;;21.70;31.20;;;;;;500257;237;2135;-44
2022/12/21 03:24:52;;;;;;;;;;;21.70;31.20;;;;;;500247;237;1713;-44
2022/12/21 03:26:54;;;;;;;;;;;21.70;31.20;;;;;;500271;237;2886;-41
2022/12/21 03:28:55;;;;;;;;;;;21.80;31.20;;;;;;500415;237;1907;-43
2022/12/21 03:30:56;;;;;;;;;;;21.80;31.20;;;;;;500413;237;2046;-44
2022/12/21 03:32:58;;;;;;;;;;;21.80;31.10;;;;;;500314;237;2183;-43
2022/12/21 03:35:00;;;;;;;;;;;21.80;31.20;;;;;;500556;237;2567;-44
2022/12/21 03:37:01;;;;;;;;;;;21.80;31.20;;;;;;500502;237;2469;-44
2022/12/21 03:39:03;;;;;;;;;;;21.80;31.20;;;;;;500652;237;1430;-44
2022/12/21 03:41:05;;;;;;;;;;;21.80;31.20;;;;;;500881;237;1732;-44
2022/12/21 03:43:07;;;;;;;;;;;21.80;31.30;;;;;;500503;237;1527;-44
2022/12/21 03:45:08;;;;;;;;;;;21.80;31.30;;;;;;500797;237;1343;-43
2022/12/21 03:47:10;;;;;;;;;;;21.80;31.20;;;;;;500762;237;1528;-44
2022/12/21 03:49:11;;;;;;;;;;;21.70;31.20;;;;;;500418;237;2068;-41
2022/12/21 03:51:12;;;;;;;;;;;21.80;31.20;;;;;;500548;237;1630;-44
2022/12/21 03:53:14;;;;;;;;;;;21.80;31.20;;;;;;500440;237;2199;-44
2022/12/21 03:55:16;;;;;;;;;;;21.80;31.10;;;;;;500579;237;2195;-44
2022/12/21 03:57:18;;;;;;;;;;;21.80;31.20;;;;;;500523;237;2009;-43
2022/12/21 03:59:20;;;;;;;;;;;21.80;31.20;;;;;;500855;237;1739;-44
2022/12/21 04:01:21;;;;;;;;;;;21.70;31.20;;;;;;500815;237;1705;-44
2022/12/21 04:03:22;;;;;;;;;;;21.70;31.30;;;;;;500635;237;1809;-44
2022/12/21 04:05:24;;;;;;;;;;;21.80;31.30;;;;;;500574;237;1932;-43
2022/12/21 04:07:26;;;;;;;;;;;21.70;31.30;;;;;;500933;237;1675;-44
2022/12/21 04:09:28;;;;;;;;;;;21.70;31.30;;;;;;500578;237;1591;-44
2022/12/21 04:13:49;;;;;;;;;;;21.70;31.30;;;;;;500830;238;2207;-44
2022/12/21 04:16:05;;;;;;;;;;;21.60;31.40;;;;;;500448;237;2015;-41
2022/12/21 04:18:07;;;;;;;;;;;21.60;31.40;;;;;;500738;237;2365;-43
2022/12/21 04:20:08;;;;;;;;;;;21.60;31.50;;;;;;500364;237;1617;-44
2022/12/21 04:28:06;;;;;;;;;;;21.60;31.50;;;;;;500452;237;1600;-44
2022/12/21 04:28:49;;;;;;;;;;;21.50;31.60;;;;;;500384;238;1739;-43
2022/12/21 04:30:51;;;;;;;;;;;21.50;31.50;;;;;;500500;237;1911;-44
2022/12/21 04:32:52;;;;;;;;;;;21.50;31.50;;;;;;500391;237;2467;-44
2022/12/21 04:34:55;;;;;;;;;;;21.50;31.70;;;;;;500415;237;1819;-41
2022/12/21 04:39:15;;;;;;;;;;;21.90;31.00;;;;;;500573;238;2363;-44
2022/12/21 04:41:17;;;;;;;;;;;22.10;30.80;;;;;;500644;237;1905;-43
2022/12/21 04:43:19;;;;;;;;;;;22.30;30.60;;;;;;500477;237;2176;-43
2022/12/21 04:45:20;;;;;;;;;;;22.40;30.40;;;;;;500325;237;1693;-43
2022/12/21 04:47:22;;;;;;;;;;;22.50;30.30;;;;;;500428;237;2487;-44
2022/12/21 04:49:23;;;;;;;;;;;22.60;30.10;;;;;;500368;237;1886;-41
2022/12/21 04:51:25;;;;;;;;;;;22.50;30.10;;;;;;500406;238;2291;-43
2022/12/21 04:53:26;;;;;;;;;;;22.50;30.10;;;;;;500291;237;2160;-44
2022/12/21 04:55:27;;;;;;;;;;;22.40;30.30;;;;;;500441;237;1659;-44
2022/12/21 04:57:29;;;;;;;;;;;22.20;30.50;;;;;;500590;237;1770;-42
2022/12/21 04:59:30;;;;;;;;;;;22.10;30.70;;;;;;500306;237;1782;-44
2022/12/21 05:01:32;;;;;;;;;;;22.00;31.00;;;;;;500508;237;2131;-41
2022/12/21 05:03:33;;;;;;;;;;;21.90;31.00;;;;;;500254;237;1966;-41
2022/12/21 05:05:35;;;;;;;;;;;21.80;31.00;;;;;;500304;237;2517;-43
2022/12/21 05:07:36;;;;;;;;;;;21.80;31.20;;;;;;500410;237;2497;-43
2022/12/21 05:09:37;;;;;;;;;;;21.70;31.20;;;;;;500400;237;2812;-42
2022/12/21 05:11:39;;;;;;;;;;;21.70;31.30;;;;;;500325;237;2184;-42
2022/12/21 05:13:41;;;;;;;;;;;21.70;31.30;;;;;;500373;237;2255;-44
2022/12/21 05:15:42;;;;;;;;;;;21.70;31.40;;;;;;500297;237;2271;-44
2022/12/21 05:17:44;;;;;;;;;;;21.70;31.40;;;;;;500350;237;2595;-42
2022/12/21 05:19:46;;;;;;;;;;;21.60;31.50;;;;;;500420;237;1857;-44
2022/12/21 05:21:49;;;;;;;;;;;21.60;31.50;;;;;;500528;237;1704;-43
2022/12/21 05:23:50;;;;;;;;;;;21.60;31.50;;;;;;500660;237;2580;-44
2022/12/21 05:25:52;;;;;;;;;;;21.60;31.50;;;;;;500554;237;1784;-40
2022/12/21 05:27:54;;;;;;;;;;;21.60;31.50;;;;;;500579;237;1708;-42
2022/12/21 05:30:02;;;;;;;;;;;21.60;31.50;;;;;;500601;237;2769;-43
2022/12/21 05:32:03;;;;;;;;;;;21.60;31.50;;;;;;500817;237;2168;-43
2022/12/21 05:34:04;;;;;;;;;;;21.60;31.60;;;;;;500508;237;2566;-40
2022/12/21 05:36:06;;;;;;;;;;;21.60;31.60;;;;;;500729;238;1809;-43
2022/12/21 05:38:07;;;;;;;;;;;21.50;31.60;;;;;;500738;237;1694;-43
2022/12/21 05:40:10;;;;;;;;;;;21.50;31.60;;;;;;500463;237;2905;-44
2022/12/21 05:42:15;;;;;;;;;;;21.50;31.60;;;;;;500513;237;3699;-43
2022/12/21 05:44:17;;;;;;;;;;;21.50;31.60;;;;;;500449;237;2411;-43
2022/12/21 05:46:18;;;;;;;;;;;21.50;31.70;;;;;;500474;237;2421;-43
2022/12/21 05:48:20;;;;;;;;;;;21.50;31.70;;;;;;500472;237;2138;-40
2022/12/21 05:50:22;;;;;;;;;;;21.50;31.70;;;;;;500454;237;3668;-44
2022/12/21 05:52:23;;;;;;;;;;;21.50;31.80;;;;;;500566;237;3000;-43
2022/12/21 05:54:25;;;;;;;;;;;21.40;31.80;;;;;;500484;237;3346;-42
2022/12/21 05:56:26;;;;;;;;;;;21.40;31.70;;;;;;500486;237;1928;-41
2022/12/21 05:58:28;;;;;;;;;;;21.50;31.70;;;;;;500543;237;1781;-44
2022/12/21 06:00:30;;;;;;;;;;;21.40;31.70;;;;;;500429;237;1819;-43
2022/12/21 06:02:31;;;;;;;;;;;21.50;31.70;;;;;;500355;237;1872;-44
2022/12/21 06:04:32;;;;;;;;;;;21.40;31.70;;;;;;500454;237;1709;-41
2022/12/21 06:06:34;;;;;;;;;;;21.40;31.70;;;;;;500523;237;2045;-44
2022/12/21 06:08:35;;;;;;;;;;;21.40;31.70;;;;;;500324;237;2101;-43
2022/12/21 06:10:37;;;;;;;;;;;21.40;31.70;;;;;;500270;237;2255;-41
2022/12/21 06:12:38;;;;;;;;;;;21.40;31.80;;;;;;500422;237;2469;-42
2022/12/21 06:14:40;;;;;;;;;;;21.40;31.80;;;;;;500033;238;2293;-44
2022/12/21 06:16:41;;;;;;;;;;;21.50;31.80;;;;;;500139;237;1838;-41
2022/12/21 06:18:43;;;;;;;;;;;21.40;31.70;;;;;;500198;237;1850;-44
2022/12/21 06:20:45;;;;;;;;;;;21.40;31.70;;;;;;500420;237;1569;-44
2022/12/21 06:22:49;;;;;;;;;;;21.50;31.70;;;;;;500412;237;2331;-43
2022/12/21 06:24:52;;;;;;;;;;;21.50;31.60;;;;;;500117;237;1918;-44
2022/12/21 06:26:55;;;;;;;;;;;21.80;31.40;;;;;;500367;237;1944;-43
2022/12/21 06:28:56;;;;;;;;;;;21.90;31.10;;;;;;500116;237;1811;-44
2022/12/21 06:30:58;;;;;;;;;;;22.10;30.80;;;;;;500242;237;2179;-44
2022/12/21 06:32:59;;;;;;;;;;;22.20;30.60;;;;;;500200;237;2153;-42
2022/12/21 06:35:01;;;;;;;;;;;22.40;30.40;;;;;;500187;238;1690;-43
2022/12/21 06:37:03;;;;;;;;;;;22.40;30.30;;;;;;500473;237;2681;-41
2022/12/21 06:39:04;;;;;;;;;;;22.60;30.20;;;;;;500372;238;2954;-42
2022/12/21 06:41:07;;;;;;;;;;;22.60;30.10;;;;;;500333;237;1954;-44
2022/12/21 06:43:10;;;;;;;;;;;22.70;30.00;;;;;;500317;238;2573;-40
2022/12/21 06:45:11;;;;;;;;;;;22.70;30.00;;;;;;500068;237;2149;-41
2022/12/21 06:47:13;;;;;;;;;;;22.80;30.00;;;;;;500306;238;1937;-44
2022/12/21 06:49:14;;;;;;;;;;;22.80;29.90;;;;;;500425;237;2860;-41
2022/12/21 06:51:16;;;;;;;;;;;22.90;29.90;;;;;;500274;238;1990;-41
2022/12/21 06:53:17;;;;;;;;;;;22.90;29.90;;;;;;500332;237;2151;-44
2022/12/21 06:55:19;;;;;;;;;;;23.00;29.80;;;;;;500305;237;2656;-40
2022/12/21 06:57:20;;;;;;;;;;;22.90;29.80;;;;;;500187;237;2170;-44
2022/12/21 06:59:22;;;;;;;;;;;23.00;29.80;;;;;;500186;237;1856;-40
2022/12/21 07:01:23;;;;;;;;;;;23.00;29.70;;;;;;500051;237;1744;-42
2022/12/21 07:03:25;;;;;;;;;;;23.10;29.70;;;;;;500358;237;2308;-44
2022/12/21 07:05:26;;;;;;;;;;;23.10;29.70;;;;;;500273;237;2589;-44
2022/12/21 07:07:27;;;;;;;;;;;23.10;29.70;;;;;;500136;237;2024;-43
2022/12/21 07:09:29;;;;;;;;;;;23.20;29.70;;;;;;500305;237;2301;-43
2022/12/21 07:11:30;;;;;;;;;;;23.20;29.70;;;;;;500179;237;1764;-41
2022/12/21 07:13:32;;;;;;;;;;;23.20;29.60;;;;;;500286;237;2180;-41
2022/12/21 07:15:33;;;;;;;;;;;23.20;29.60;;;;;;500357;237;1837;-41
2022/12/21 07:17:34;;;;;;;;;;;23.20;29.50;;;;;;500281;237;1973;-41
2022/12/21 07:19:36;;;;;;;;;;;23.30;29.50;;;;;;500315;237;2133;-44
2022/12/21 07:21:38;;;;;;;;;;;23.30;29.50;;;;;;500393;237;2169;-44
2022/12/21 07:23:39;;;;;;;;;;;23.30;29.50;;;;;;500092;237;2629;-44
2022/12/21 07:25:40;;;;;;;;;;;23.30;29.40;;;;;;500199;237;2111;-44
2022/12/21 07:27:42;;;;;;;;;;;23.30;29.40;;;;;;500102;237;2112;-44
2022/12/21 07:29:43;;;;;;;;;;;23.40;29.50;;;;;;500214;237;2631;-41
2022/12/21 07:31:45;;;;;;;;;;;23.40;29.50;;;;;;500230;237;2755;-42
2022/12/21 07:33:46;;;;;;;;;;;23.40;29.40;;;;;;500088;237;2362;-41
2022/12/21 07:35:48;;;;;;;;;;;23.40;29.40;;;;;;500245;237;1837;-43
2022/12/21 07:37:49;;;;;;;;;;;23.40;29.40;;;;;;500153;237;1730;-41
2022/12/21 07:39:50;;;;;;;;;;;23.50;29.40;;;;;;500040;238;1969;-44
2022/12/21 07:41:51;;;;;;;;;;;23.50;29.40;;;;;;499936;237;2353;-45
2022/12/21 07:43:53;;;;;;;;;;;23.50;29.40;;;;;;499888;237;2291;-44
2022/12/21 07:45:54;;;;;;;;;;;23.50;29.40;;;;;;500034;237;1891;-44
2022/12/21 07:47:56;;;;;;;;;;;23.60;29.30;;;;;;500062;237;2434;-42
2022/12/21 07:49:57;;;;;;;;;;;23.60;29.30;;;;;;500086;237;2704;-43
2022/12/21 07:51:59;;;;;;;;;;;23.60;29.40;;;;;;499988;237;1942;-41
2022/12/21 07:54:00;;;;;;;;;;;23.60;29.30;;;;;;500213;237;2195;-43
2022/12/21 07:56:02;;;;;;;;;;;23.70;29.40;;;;;;500019;237;1744;-44
2022/12/21 07:58:04;;;;;;;;;;;23.70;29.30;;;;;;500075;237;1551;-44
2022/12/21 08:00:09;;;;;;;;;;;23.70;29.30;;;;;;500294;237;1981;-44
2022/12/21 08:02:10;;;;;;;;;;;23.70;29.30;;;;;;500400;237;1628;-44
2022/12/21 08:04:12;;;;;;;;;;;23.70;29.30;;;;;;500358;237;1218;-44
2022/12/21 08:06:13;;;;;;;;;;;23.70;29.30;;;;;;500384;237;1933;-41
2022/12/21 08:08:15;;;;;;;;;;;23.70;29.30;;;;;;500392;237;1685;-43
2022/12/21 08:10:16;;;;;;;;;;;23.70;29.30;;;;;;500537;237;1701;-43
2022/12/21 08:12:18;;;;;;;;;;;23.70;29.40;;;;;;500669;237;1718;-44
2022/12/21 08:14:19;;;;;;;;;;;23.60;29.40;;;;;;500567;237;2160;-44
2022/12/21 08:16:20;;;;;;;;;;;23.40;29.50;;;;;;500520;237;1577;-44
2022/12/21 08:18:22;;;;;;;;;;;23.30;29.70;;;;;;500427;237;1342;-44
2022/12/21 08:20:24;;;;;;;;;;;23.20;29.90;;;;;;500335;237;1710;-40
2022/12/21 08:22:25;;;;;;;;;;;23.10;30.00;;;;;;500258;237;1897;-44
2022/12/21 08:24:28;;;;;;;;;;;23.00;30.00;;;;;;500382;238;1797;-44
2022/12/21 08:26:29;;;;;;;;;;;22.90;30.20;;;;;;500268;237;2048;-43
2022/12/21 08:28:31;;;;;;;;;;;22.80;30.30;;;;;;500218;237;1624;-43
2022/12/21 08:30:33;;;;;;;;;;;22.70;30.40;;;;;;500253;237;2655;-42
2022/12/21 08:32:34;;;;;;;;;;;22.60;30.60;;;;;;500265;237;2395;-43
2022/12/21 08:34:35;;;;;;;;;;;22.60;30.70;;;;;;500113;237;2271;-43
2022/12/21 08:36:37;;;;;;;;;;;22.60;30.70;;;;;;500176;237;2144;-42
2022/12/21 08:38:38;;;;;;;;;;;22.60;30.70;;;;;;500195;237;2378;-43
2022/12/21 08:40:41;;;;;;;;;;;22.50;30.90;;;;;;500314;237;2245;-44
2022/12/21 08:42:42;;;;;;;;;;;22.50;30.90;;;;;;500298;237;2550;-44
2022/12/21 08:44:43;;;;;;;;;;;22.40;31.00;;;;;;500419;237;2065;-44
2022/12/21 08:46:45;;;;;;;;;;;22.40;31.10;;;;;;500234;237;1694;-40
2022/12/21 08:48:48;;;;;;;;;;;22.30;31.10;;;;;;500463;237;2036;-44
2022/12/21 08:50:48;;;;;;;;;;;22.30;31.20;;;;;;500238;238;2750;-42
2022/12/21 08:52:50;;;;;;;;;;;22.30;31.30;;;;;;500459;237;1840;-41
2022/12/21 08:54:51;;;;;;;;;;;22.30;31.30;;;;;;500344;237;2144;-41
2022/12/21 08:56:53;;;;;;;;;;;22.20;31.20;;;;;;500530;237;1209;-44
2022/12/21 08:58:54;;;;;;;;;;;22.20;31.40;;;;;;500604;237;1649;-44
2022/12/21 09:00:56;;;;;;;;;;;22.20;31.40;;;;;;500323;237;1737;-44
2022/12/21 09:02:58;;;;;;;;;;;22.20;31.40;;;;;;500484;237;2601;-44
2022/12/21 09:04:59;;;;;;;;;;;22.20;31.50;;;;;;500386;237;1808;-44
2022/12/21 09:07:01;;;;;;;;;;;22.20;31.50;;;;;;500415;237;1673;-43
2022/12/21 09:09:02;;;;;;;;;;;22.10;31.50;;;;;;500144;237;2142;-43
2022/12/21 09:11:04;;;;;;;;;;;22.10;31.60;;;;;;500413;237;2432;-44
2022/12/21 09:13:05;;;;;;;;;;;22.00;31.60;;;;;;500265;237;1913;-44
2022/12/21 09:15:07;;;;;;;;;;;22.10;31.70;;;;;;500267;237;2199;-41
2022/12/21 09:17:09;;;;;;;;;;;22.10;31.70;;;;;;500019;238;2121;-44
2022/12/21 09:19:10;;;;;;;;;;;22.00;31.60;;;;;;500251;237;2321;-44
2022/12/21 09:21:13;;;;;;;;;;;22.10;31.70;;;;;;500117;237;2076;-41
2022/12/21 09:23:14;;;;;;;;;;;22.00;31.70;;;;;;500400;237;1799;-44
2022/12/21 09:25:16;;;;;;;;;;;22.00;31.80;;;;;;500277;237;1507;-44
2022/12/21 09:27:18;;;;;;;;;;;22.00;31.90;;;;;;500293;237;1315;-44
2022/12/21 09:29:23;;;;;;;;;;;22.00;31.90;;;;;;500422;237;2087;-44
2022/12/21 09:31:24;;;;;;;;;;;21.90;31.90;;;;;;500237;237;2511;-43
2022/12/21 09:33:26;;;;;;;;;;;21.90;31.90;;;;;;500245;237;1706;-44
2022/12/21 09:35:27;;;;;;;;;;;21.90;31.90;;;;;;500333;237;2171;-43
2022/12/21 09:37:29;;;;;;;;;;;21.90;32.00;;;;;;500283;237;1668;-44
2022/12/21 09:39:31;;;;;;;;;;;21.90;31.90;;;;;;500181;237;1687;-44
2022/12/21 09:41:33;;;;;;;;;;;22.00;32.00;;;;;;499950;237;2319;-44
2022/12/21 09:43:34;;;;;;;;;;;22.00;31.90;;;;;;500018;237;1894;-41
2022/12/21 09:45:36;;;;;;;;;;;21.90;32.10;;;;;;500025;237;1804;-44
2022/12/21 09:47:37;;;;;;;;;;;21.90;32.00;;;;;;500011;237;2597;-44
2022/12/21 09:49:38;;;;;;;;;;;22.00;32.00;;;;;;500062;237;3063;-44
2022/12/21 09:51:40;;;;;;;;;;;21.90;32.10;;;;;;499999;237;2044;-40
2022/12/21 09:53:41;;;;;;;;;;;21.90;32.00;;;;;;500191;237;1878;-41
2022/12/21 09:55:42;;;;;;;;;;;21.90;32.10;;;;;;500147;237;2191;-44
2022/12/21 09:57:44;;;;;;;;;;;21.90;32.10;;;;;;500473;237;1792;-43
2022/12/21 09:59:45;;;;;;;;;;;21.90;32.10;;;;;;500186;237;1877;-44
2022/12/21 10:01:47;;;;;;;;;;;21.90;32.20;;;;;;500226;237;1999;-44
2022/12/21 10:03:49;;;;;;;;;;;21.90;32.10;;;;;;500150;237;1897;-43
2022/12/21 10:05:50;;;;;;;;;;;21.90;32.20;;;;;;500156;237;1951;-44
2022/12/21 10:07:52;;;;;;;;;;;21.80;32.10;;;;;;500192;237;1720;-43
2022/12/21 10:09:53;;;;;;;;;;;21.90;32.20;;;;;;500027;237;1858;-43
2022/12/21 10:11:54;;;;;;;;;;;21.80;32.10;;;;;;500196;237;1672;-44
2022/12/21 10:13:57;;;;;;;;;;;21.90;32.20;;;;;;500120;237;1719;-44
2022/12/21 10:15:58;;;;;;;;;;;21.80;32.20;;;;;;500005;237;2180;-43
2022/12/21 10:18:00;;;;;;;;;;;21.80;32.20;;;;;;499921;237;2004;-41
2022/12/21 10:20:02;;;;;;;;;;;21.80;32.30;;;;;;499997;237;2378;-44
2022/12/21 10:22:04;;;;;;;;;;;21.80;32.30;;;;;;499951;237;1824;-41
2022/12/21 10:24:05;;;;;;;;;;;21.80;32.30;;;;;;500156;238;2189;-43
2022/12/21 10:26:07;;;;;;;;;;;22.00;32.10;;;;;;499769;238;2075;-44
2022/12/21 10:28:08;;;;;;;;;;;22.20;31.80;;;;;;500102;237;2010;-44
2022/12/21 10:30:10;;;;;;;;;;;22.40;31.50;;;;;;500109;237;1946;-43
2022/12/21 10:32:11;;;;;;;;;;;22.50;31.30;;;;;;500254;237;1721;-43
2022/12/21 10:34:13;;;;;;;;;;;22.60;31.20;;;;;;500106;237;1705;-44
2022/12/21 10:36:15;;;;;;;;;;;22.50;31.20;;;;;;500157;237;2553;-41
2022/12/21 10:38:17;;;;;;;;;;;22.40;31.30;;;;;;500283;237;1472;-43
2022/12/21 10:40:17;;;;;;;;;;;22.30;31.40;;;;;;500002;237;2169;-43
2022/12/21 10:42:19;;;;;;;;;;;22.30;31.60;;;;;;500037;237;1919;-44
2022/12/21 10:44:20;;;;;;;;;;;22.40;31.50;;;;;;500185;237;2139;-40
2022/12/21 10:46:21;;;;;;;;;;;22.60;31.40;;;;;;499999;237;1713;-44
2022/12/21 10:48:23;;;;;;;;;;;22.50;31.30;;;;;;499992;237;2631;-44
2022/12/21 10:50:25;;;;;;;;;;;22.50;31.30;;;;;;499954;237;1768;-44
2022/12/21 10:52:25;;;;;;;;;;;22.40;31.50;;;;;;499921;237;2485;-44
2022/12/21 10:54:27;;;;;;;;;;;22.40;31.50;;;;;;500084;237;1695;-40
2022/12/21 10:56:28;;;;;;;;;;;22.30;31.60;;;;;;499980;237;2273;-44
2022/12/21 10:58:29;;;;;;;;;;;22.30;31.70;;;;;;500047;237;2332;-43
2022/12/21 11:00:31;;;;;;;;;;;22.30;31.80;;;;;;500260;237;1699;-44
2022/12/21 11:02:32;;;;;;;;;;;22.20;31.80;;;;;;500315;237;1850;-44
2022/12/21 11:04:34;;;;;;;;;;;22.20;31.80;;;;;;500209;237;1732;-44
2022/12/21 11:06:36;;;;;;;;;;;22.30;31.90;;;;;;500121;237;2707;-44
2022/12/21 11:08:38;;;;;;;;;;;22.20;31.80;;;;;;500271;237;1730;-44
2022/12/21 11:10:39;;;;;;;;;;;22.20;31.80;;;;;;500147;237;2045;-44
2022/12/21 11:12:41;;;;;;;;;;;22.30;31.90;;;;;;500228;237;1643;-44
2022/12/21 11:14:42;;;;;;;;;;;22.20;31.90;;;;;;500248;237;2180;-44
2022/12/21 11:16:44;;;;;;;;;;;22.20;31.90;;;;;;500245;237;1687;-44
2022/12/21 11:18:46;;;;;;;;;;;22.20;31.90;;;;;;500283;237;1937;-44
2022/12/21 11:20:47;;;;;;;;;;;22.30;32.00;;;;;;499973;238;2669;-44
2022/12/21 11:22:49;;;;;;;;;;;22.30;31.90;;;;;;499941;237;1334;-44
2022/12/21 11:24:50;;;;;;;;;;;22.30;31.90;;;;;;500130;237;1654;-44
2022/12/21 11:26:52;;;;;;;;;;;22.30;31.90;;;;;;500036;237;1544;-44
2022/12/21 11:28:53;;;;;;;;;;;22.30;32.00;;;;;;500154;237;2052;-41
2022/12/21 11:30:55;;;;;;;;;;;22.20;31.90;;;;;;500022;237;1743;-44
2022/12/21 11:32:56;;;;;;;;;;;22.20;32.00;;;;;;500037;237;2411;-44
2022/12/21 11:34:58;;;;;;;;;;;22.20;32.00;;;;;;500124;237;2175;-43
2022/12/21 11:37:00;;;;;;;;;;;22.20;32.10;;;;;;499972;238;2069;-44
2022/12/21 11:39:01;;;;;;;;;;;22.20;32.10;;;;;;500108;237;2214;-43
2022/12/21 11:41:02;;;;;;;;;;;22.20;32.10;;;;;;499930;237;2404;-40
2022/12/21 11:43:04;;;;;;;;;;;22.20;32.10;;;;;;499835;237;1645;-44
2022/12/21 11:45:05;;;;;;;;;;;22.20;32.10;;;;;;500067;237;2231;-41
2022/12/21 11:47:07;;;;;;;;;;;22.20;32.10;;;;;;499863;237;2282;-44
2022/12/21 11:49:09;;;;;;;;;;;22.20;32.10;;;;;;499980;237;2645;-42
2022/12/21 11:51:12;;;;;;;;;;;22.20;32.10;;;;;;500006;237;2322;-42
2022/12/21 11:53:13;;;;;;;;;;;22.20;32.20;;;;;;499856;237;2493;-44
2022/12/21 11:55:15;;;;;;;;;;;22.20;32.10;;;;;;499893;237;2165;-44
2022/12/21 11:57:16;;;;;;;;;;;22.20;32.20;;;;;;499870;237;1790;-43
2022/12/21 11:59:18;;;;;;;;;;;22.20;32.20;;;;;;499878;237;3071;-43
2022/12/21 12:01:20;;;;;;;;;;;22.20;32.10;;;;;;499829;237;1944;-44
2022/12/21 12:03:21;;;;;;;;;;;22.20;32.20;;;;;;499910;237;1727;-41
2022/12/21 12:05:22;;;;;;;;;;;22.20;32.20;;;;;;499906;237;1789;-44
2022/12/21 12:07:24;;;;;;;;;;;22.20;32.20;;;;;;499942;237;1737;-43